Ride Results

Murrumba Magic (21-05-2006)
Ride distance: 100.0 km

Outcomes - Murrumba Magic (21-05-2006)
Division No. of Entries Retired / DNE Completed Withdrawn Ineligible V/O Percentage Completed
HW 31 - 22 2 2 5 70.97%
MW 55 - 42 4 - 9 76.36%
LW 37 - 28 1 - 8 75.68%
JN 6 - 4 1 - 1 66.67%
Totals 129 - 96 8 2 23 74.42%
Results - Murrumba Magic (21-05-2006)
No. Rider Horse Place Time Leg Speeds Total
Km/Hr
H/R bpm
Heavyweight
86 Peter Toft Don 1 5:31:00 19.1, 19.4, 15.1 18.13 36, 39, 41, 45 (Avg:41)
64 Maurice Gray Ashraf Ibn Amir 2 6:12:00 17.5, 15.4, 15.1 16.13 36, 39, 48, 50 (Avg:45)
53 Virginia Beard Longrun Silver Shallum 3 6:35:00 13.9, 15.5, 17.1 15.19 32, 41, 41, 43 (Avg:41)
152 Jonnie White Die Kinder Spyder 4 6:52:00 14.2, 14.7, 14.6 14.56 36, 35, 45, 43 (Avg:41)
178 Ken Burwell Kalkadoon Nijinsky 5 6:59:00 14.9, 13.9, 13.8 14.32 38, 43, 45, 54 (Avg:47)
171 Michael Shaw Azerash Shahreza 6 7:03:00 14.2, 14.3, 13.9 14.18 31, 40, 48, 51 (Avg:46)
127 Leanne Le Claire Aloha Kamahl 7 7:19:00 14.0, 14.4, 12.1 13.67 32, 41, 43, 45 (Avg:43)
72 Bruce Moore Diamond Explorer 8 7:33:00 13.4, 13.9, 12.1 13.25 41, 45, 53, 54 (Avg:50)
69 Steve Swan Longrun Anika 9 7:37:00 14.2, 14.3, 10.5 13.13 26, 33, 38, 41 (Avg:37)
124 David Horton Camelot Retreat Azada 10 7:49:00 13.5, 13.0, 11.4 12.79 36, 40, 41, 48 (Avg:43)
76 Olaf Lochtenberg Matta Mia Larry 11 7:55:00 12.8, 13.0, 11.8 12.63 32, 38, 45, 53 (Avg:45)
135 Peter Birch Hillbrae Riley 12 8:03:00 13.9, 12.3, 10.5 12.42 31, 40, 45, 44 (Avg:43)
136 Elizabeth Paton Rafyke 12 8:03:00 13.9, 12.3, 10.5 12.42 37, 41, 48, 50 (Avg:46)
139 Craig Renner Edenfels Zephyr 12 8:03:00 15.0, 12.2, 9.7 12.42 29, 40, 58, 51 (Avg:49)
52 Steve Barlow Dunwingeri Maakan 15 8:08:00 12.9, 12.4, 11.0 12.30 36, 40, 44, 44 (Avg:42)
148 John Bright Monty 16 8:26:00 11.5, 12.5, 11.3 11.86 36, 36, 37, 43 (Avg:38)
175 Peter Casey Fred 17 8:41:00 12.7, 11.3, 10.0 11.52 36, 40, 40, 44 (Avg:41)
80 John Simpson Charaway Chaivu 17 8:41:00 12.4, 11.6, 10.1 11.52 34, 36, 41, 42 (Avg:39)
94 Paul Fitzgerald Merton Amadeus 19 8:48:00 13.1, 11.1, 9.5 11.36 30, 44, 50, 57 (Avg:50)
147 Russell Rainbird Bullarto Fiorelli 19 8:48:00 12.7, 11.4, 9.4 11.36 40, 48, 54, 48 (Avg:50)
77 Hal Archer Dunwingeri Nova 21 9:08:00 13.1, 10.3, 9.1 10.95 36, 41, 47, 50 (Avg:46)
91 Tim Weismann Hirstglen Tara 22 9:12:00 10.3, 10.9, 11.8 10.87 38, 41, 42, 43 (Avg:42)
62 Shane Butler Smokee Lame L3 0:00:00 15.3, 14.9, 10.7 - 31, 41, 44, 51 (Avg:45)
151 Maurice Crombie Te Auri Zahir Disqualified L3 0:00:00 14.3, 14.9, 17.1 - 40, 42, 46, 51 (Avg:46)
174 Len Law Ming-Gah Teranus Heart Rate L3 0:00:00 14.6, 11.4, 12.4 - 30, 42, 50, 63 (Avg:51)
56 John Dugan Performance Park Lady Kharisma Disqualified L2 0:00:00 11.6, 12.4 - 42, 39, 43 (Avg:41)
98 Nick Fry Rivalyn Winette Widthdrawn L2 0:00:00 - - 29, 40, 54 (Avg:47)
100 Mick Hill Harb Sparkling Miss Lame L2 0:00:00 12.6, 10.8 - 42, 43, 49 (Avg:46)
122 Roger Warner Cassius Lame L2 0:00:00 12.1, 10.4 - 34, 54, 53 (Avg:53)
161 Clinton Cole Rustan Ramarah Widthdrawn L1 0:00:00 - - 46, 0 (Avg:0)
68 Mark Nimon Abbeywood Dallas Lame L1 0:00:00 14.6 - 30, 40 (Avg:40)
Middleweight
73 Arch Felton Bint Shah Dara 1 5:17:00 19.6, 18.9, 17.7 18.93 32, 41, 47, 56 (Avg:48)
150 Linda Meredith Anglesea Trooper 2 5:39:00 17.9, 17.7, 17.3 17.70 32, 38, 40, 46 (Avg:41)
179 Scott Hill Kalkadoon Kynuna 3 5:47:00 17.9, 17.7, 15.8 17.29 28, 36, 44, 48 (Avg:42)
180 Karen Johanson Kalkadoon Kismet 3 5:47:00 17.9, 17.7, 15.8 17.29 29, 37, 45, 47 (Avg:43)
88 Donna Brooker Hirstglen Fargo 5 5:50:00 16.9, 16.7, 18.2 17.14 30, 38, 36, 42 (Avg:38)
158 Barbara Macdonald Genet Zac 6 6:30:00 16.5, 14.4, 14.9 15.38 35, 40, 45, 50 (Avg:45)
160 Robert Sutton Tottenham Park Etosha 7 6:49:00 15.0, 14.3, 14.5 14.67 36, 38, 44, 44 (Avg:42)
173 Marilyn Wade Nikki 7 6:49:00 15.9, 13.2, 14.9 14.67 29, 45, 49, 55 (Avg:49)
129 Matthew Gadsby Cherox Kariim 9 6:57:00 14.6, 14.6, 13.5 14.39 27, 42, 44, 49 (Avg:45)
54 Bridget Nottle Splendacrest Dryad 10 7:19:00 13.4, 14.4, 12.9 13.67 47, 44, 48, 50 (Avg:47)
165 Ursula Keenan Willowvale Sirahh (imp NZ) 11 7:20:00 13.6, 13.8, 13.3 13.64 38, 49, 48, 52 (Avg:49)
154 Ken Moir Drumlin Moonshine 11 7:20:00 13.4, 14.4, 12.8 13.64 28, 36, 45, 50 (Avg:43)
96 Robyn Edwards Lusitania 13 7:33:00 13.6, 14.1, 11.6 13.25 38, 40, 48, 38 (Avg:42)
85 Penny Toft Blue Bronco 14 7:36:00 13.3, 12.9, 13.2 13.16 30, 43, 46, 45 (Avg:44)
104 Helen Toft Narrawa Astron 14 7:36:00 13.3, 12.9, 13.2 13.16 32, 33, 38, 39 (Avg:36)
172 Julie Kemp Al Baraq 16 7:37:00 14.2, 14.3, 10.5 13.13 33, 40, 53, 55 (Avg:49)
132 Adrian Brickley Riverdance Nazareth 17 7:39:00 13.4, 13.7, 11.6 13.07 34, 47, 47, 54 (Avg:49)
112 Raewyn Carter Mt Eerwah Siridion 18 7:44:00 13.6, 13.0, 11.8 12.93 31, 36, 41, 40 (Avg:39)
162 Craig Ellison Kalkadoon Vaquero 19 7:55:00 13.3, 13.0, 11.1 12.63 32, 36, 47, 45 (Avg:42)
115 Viv Butler Sadaqa 20 8:07:00 14.9, 13.0, 8.9 12.32 34, 43, 50, 50 (Avg:47)
51 Anne Barlow Tyto Ivan 21 8:08:00 12.9, 12.4, 11.0 12.30 32, 40, 45, 48 (Avg:44)
134 Holly DeStefani Sundust Frisco 22 8:22:00 13.1, 12.1, 10.1 11.95 40, 43, 48, 58 (Avg:49)
87 Wendy Smith Midu Jacelle 22 8:22:00 13.1, 12.6, 9.6 11.95 35, 46, 43, 46 (Avg:45)
57 Emma Holland Shardell Galahad 24 8:36:00 12.8, 12.7, 9.0 11.63 33, 41, 47, 55 (Avg:47)
79 Jean Taylor Nerim 25 8:41:00 12.4, 11.6, 10.1 11.52 32, 39, 43, 46 (Avg:42)
92 Caroline Fitzgerald Dunwingeri Bint Farhan 26 8:48:00 13.1, 11.1, 9.5 11.36 29, 41, 44, 47 (Avg:44)
67 Heather Lindsay Tamiah Park El Shai 26 8:48:00 12.7, 11.1, 9.7 11.36 30, 37, 42, 41 (Avg:40)
167 Sally Summers Jayhal Shazal 28 8:49:00 13.2, 10.6, 9.9 11.34 46, 40, 44, 51 (Avg:45)
55 Jaime Mansbridge Kai Hai Yaasmiihn 29 8:50:00 12.7, 11.1, 9.6 11.32 44, 49, 50, 60 (Avg:53)
97 Sarah Pembroke Dakila Renoasette 30 8:57:00 13.3, 13.0, 7.4 11.17 32, 41, 43, 55 (Avg:46)
81 Louis Botha Shareef 31 8:58:00 11.2, 11.4, 10.6 11.15 34, 36, 45, 45 (Avg:42)
82 Ellie Hill Euraman Kara Cobar 31 8:58:00 11.4, 11.1, 10.6 11.15 33, 40, 39, 44 (Avg:41)
106 Elsie Newsome Willowcreek Kaleem 31 8:58:00 11.2, 11.4, 10.6 11.15 32, 48, 47, 52 (Avg:49)
137 Graysen Clarke Latif Jemima 34 9:08:00 12.4, 10.8, 9.2 10.95 38, 35, 48, 46 (Avg:43)
130 Louise Mackey Dmar Raining Gold 35 9:25:00 11.8, 10.4, 9.2 10.62 40, 38, 52, 49 (Avg:46)
131 Maree Pearce My Kentucky 35 9:25:00 11.7, 10.4, 9.2 10.62 29, 36, 38, 41 (Avg:38)
141 James Christensen Zeehan Zamir 37 9:31:00 13.1, 10.5, 7.8 10.51 38, 46, 51, 49 (Avg:48)
95 Vivian Hollins Georgia 38 9:39:00 11.5, 10.9, 8.2 10.36 36, 38, 42, 40 (Avg:40)
155 Jodie Harms Marja Tippany 39 9:40:00 9.7, 11.8, 9.4 10.34 34, 39, 50, 59 (Avg:49)
103 Jenny Noffke Sailor 39 9:40:00 11.5, 10.9, 8.1 10.34 30, 37, 50, 48 (Avg:45)
113 Rhian Pearce Meltharina Mabran 41 9:45:00 10.3, 10.3, 9.9 10.26 34, 38, 44, 40 (Avg:40)
119 Robyn Pembroke Mt Eerwah Silver Arafina 42 9:48:00 11.8, 11.3, 7.4 10.20 28, 33, 35, 36 (Avg:34)
120 Trevor Copland Mt Eerwah Silverado Lame L3 0:00:00 11.8, 11.4, 8.6 - 28, 32, 36, 44 (Avg:37)
61 Steve Gray Ashraf Sparkling Panache Heart Rate L3 0:00:00 17.5, 15.4, 11.9 - 36, 45, 49, 61 (Avg:51)
101 Warwick Toft Abdul Lame L3 0:00:00 13.3, 12.9, 13.2 - 40, 40, 48, 49 (Avg:45)
78 Sue Crockett Alamo Kipling Widthdrawn L2 0:00:00 - - 30, 44, 54 (Avg:49)
70 Sally Genninges Arinya Park Nazzerin Widthdrawn L2 0:00:00 - - 29, 34, 37 (Avg:35)
164 Dale Hargreaves Mathew Lame L2 0:00:00 14.6, 15.8 - 42, 40, 44 (Avg:42)
157 Lesley Nancarrow Cameo Coquette Widthdrawn L2 0:00:00 - - 32, 35, 45 (Avg:40)
109 Daniele O'Loughlin Just A Gigolo Widthdrawn L2 0:00:00 - - 38, 41, 44 (Avg:42)
105 Kathleen Roberts Halcyon Himaman Lame L2 0:00:00 10.4, 10.8 - 29, 37, 44 (Avg:40)
142 Fiona Fenech Kilkivan Msalute Lame L1 0:00:00 14.5 - 46, 44 (Avg:44)
156 Jasmin Hanson Marja Shalana's Image Lame L1 0:00:00 9.7 - 34, 37 (Avg:37)
118 Deborah Hargie Santana Park Samson Lame L1 0:00:00 11.8 - 31, 39 (Avg:39)
63 Deborah Krogh Mithras Lancelot Lame L1 0:00:00 10.4 - 32, 39 (Avg:39)
Lightweight
65 Jocelyn Barnes Rodborough Rezon 1 6:08:00 15.0, 16.3, 18.7 16.30 32, 37, 40, 47 (Avg:41)
159 Jeanna Maher Red Gum Trinket 2 6:11:00 19.1, 14.4, 14.9 16.17 34, 41, 46, 46 (Avg:44)
71 Sasha Savage Tubbarubba Cheval 2 6:11:00 17.2, 15.3, 15.8 16.17 37, 44, 46, 54 (Avg:48)
107 Sonya Ryan Abrock Ned 4 6:30:00 16.4, 14.8, 14.5 15.38 36, 42, 49, 50 (Avg:47)
128 Yuko Crease Kai Hai Sterling Aaramis 5 6:57:00 14.7, 14.3, 13.9 14.39 31, 42, 44, 49 (Avg:45)
125 Aanja Hamelink Captain's Creek Cruise 6 7:10:00 15.3, 12.3, 14.5 13.95 24, 31, 46, 46 (Avg:41)
133 Angela Hawks Crysari 7 7:39:00 13.4, 13.7, 11.6 13.07 34, 38, 43, 44 (Avg:41)
75 Terri Anderson Matta Mia Ademi 8 7:55:00 12.8, 13.0, 11.8 12.63 39, 44, 48, 59 (Avg:50)
163 Bec Miller Ropa Park Kue-Sera 8 7:55:00 13.3, 13.0, 11.1 12.63 32, 40, 47, 50 (Avg:45)
116 Bobbi Lochtenberg Sooty Bye Royal 10 8:07:00 14.9, 13.0, 8.9 12.32 28, 40, 48, 44 (Avg:44)
138 Sarah Love Koorong Elijah 11 8:20:00 12.7, 11.8, 11.0 12.00 40, 47, 49, 50 (Avg:48)
74 Bridget Campbell Cameo Kinshaza 12 8:22:00 13.2, 12.0, 10.1 11.95 42, 44, 43, 44 (Avg:43)
145 Elise Gough Sundust Sierra 13 8:28:00 13.1, 12.2, 9.6 11.81 30, 42, 52, 54 (Avg:49)
58 Tomarra Serjeant Roswick Fall 14 8:36:00 12.8, 12.7, 9.0 11.63 32, 38, 40, 46 (Avg:41)
108 Jayne Fry Rivalyn Shianne 15 8:41:00 12.6, 10.8, 10.8 11.52 29, 35, 43, 44 (Avg:40)
153 Jan Rainbird Poroti Levi 16 8:48:00 12.7, 11.4, 9.4 11.36 40, 46, 50, 53 (Avg:49)
168 Amanda Weier Kahshah 17 8:49:00 13.1, 10.6, 9.9 11.34 36, 43, 46, 49 (Avg:46)
144 Robyn Brazel Thomas 18 8:50:00 11.5, 12.7, 9.4 11.32 38, 43, 49, 52 (Avg:48)
93 Jeremy Robertson Bremervale Flying High 19 8:58:00 11.2, 11.4, 10.6 11.15 34, 42, 45, 46 (Avg:44)
89 Corinne Rees Hirstglen Conquistador 20 9:12:00 10.4, 10.8, 11.8 10.87 36, 40, 47, 46 (Avg:44)
121 Carla Jones Mt Eerwah Moonshadow 21 9:18:00 11.8, 11.3, 8.7 10.75 36, 37, 40, 47 (Avg:41)
59 Renae Kuhn Mt Eerwah Silver Mariner 21 9:18:00 11.8, 11.2, 8.7 10.75 27, 44, 56, 58 (Avg:52)
117 Chelsea Moore Thara's Dream 21 9:18:00 11.8, 11.2, 8.7 10.75 34, 45, 47, 47 (Avg:46)
60 Barbara Draheim Danbar Silk N' Satinn 24 9:24:00 11.4, 11.0, 9.0 10.64 31, 38, 43, 40 (Avg:40)
123 Tylana Woodward Tallow Wood Sa Hassan 25 9:30:00 13.7, 9.3, 8.7 10.53 32, 52, 49, 46 (Avg:49)
102 Heather Parry Agape Genesis 26 9:40:00 11.5, 10.9, 8.1 10.34 31, 49, 57, 54 (Avg:53)
111 Kaylea Maher El Quantum 27 9:45:00 10.3, 10.4, 9.9 10.26 38, 36, 38, 42 (Avg:38)
114 Katherine Ryan Uvinia Blue Son 27 9:45:00 10.3, 10.4, 9.9 10.26 31, 40, 45, 50 (Avg:45)
146 Cassie Saunders Anatase Roseanna Lame L3 0:00:00 13.1, 12.2, 9.6 - 36, 43, 45, 50 (Avg:46)
110 Brigitte Stamm Die Kinder Lunar Eclipse Heart Rate L3 0:00:00 13.6, 13.0, 11.8 - 30, 46, 53, 66 (Avg:55)
166 Della Weier Shahtaan Lame L3 0:00:00 13.2, 10.6, 9.9 - 29, 34, 40, 38 (Avg:37)
126 Karen Winkel Roheryn Cavalier Lame L3 0:00:00 13.2, 13.0, 10.7 - 36, 41, 50, 55 (Avg:48)
149 Sarrah Lee Fenech Pilgrim Lame L2 0:00:00 11.5, 12.5 - 54, 38, 44 (Avg:41)
99 Karen Hill Rivelyn Flicker Widthdrawn L2 0:00:00 - - 31, 40, 43 (Avg:41)
90 Donna Roberts Hirstglen Louisville Lame L2 0:00:00 10.3, 10.9 - 30, 34, 37 (Avg:35)
177 Michael Gabriel Eskdale Espirique Lame L1 0:00:00 13.5 - 29, 36 (Avg:36)
66 Janelle Weise Sahala Afrikhaan Lame L1 0:00:00 15.0 - 36, 42 (Avg:42)
Junior
140 Haley Jean Steuer Milora Park Boomer 1 7:24:00 16.3, 11.8, 12.6 13.51 30, 36, 41, 47 (Avg:41)
169 Andrew Abbas Echo Park Highlander 2 8:49:00 13.0, 10.8, 9.9 11.34 28, 38, 42, 47 (Avg:42)
170 Terrence Weier Jayhal Ghost 2 8:49:00 13.2, 10.6, 9.9 11.34 33, 41, 40, 43 (Avg:41)
84 Brooke Warner Champion Lad 4 8:58:00 11.4, 11.1, 10.6 11.15 28, 36, 43, 43 (Avg:40)
83 Zoe Locke Elphyn Sparkle Widthdrawn L2 0:00:00 - - 34, 44, 38 (Avg:41)
143 Amaya Thomas Tallio Muftakher Lame L2 0:00:00 14.5, 13.0 - 34, 36, 50 (Avg:43)